Time;durP1;ratioP1;P1;durP2;ratioP2;P2;SDS_P1;SDS_P2;PMS_P1;PMS_P2;Temp;Humidity;BMP_temperature;BMP_pressure;BME280_temperature;BME280_humidity;BME280_pressure;Samples;Min_cycle;Max_cycle;Signal;HPM_P1;HPM_P2
2022/06/20 00:01:26;;;;;;;4.82;4.40;;;;;;;22.55;64.58;101393.16;5034134;28;20024;-84
2022/06/20 00:03:51;;;;;;;;;;;;;;;22.87;64.30;101428.22;5051361;28;20470;-84
2022/06/20 00:06:20;;;;;;;4.95;4.45;;;;;;;22.68;64.38;101410.22;5032514;28;19916;-84
2022/06/20 00:08:49;;;;;;;4.70;4.30;;;;;;;22.81;64.59;101427.25;5034057;28;20025;-84
2022/06/20 00:11:17;;;;;;;5.10;4.60;;;;;;;22.81;64.10;101429.91;5032107;28;20024;-84
2022/06/20 00:13:45;;;;;;;4.40;4.00;;;;;;;22.80;64.31;101423.72;5051413;28;20411;-84
2022/06/20 00:16:16;;;;;;;4.60;4.20;;;;;;;22.77;64.33;101427.22;5033370;28;20032;-84
2022/06/20 00:18:42;;;;;;;5.72;4.30;;;;;;;22.77;64.38;101434.28;5034711;28;20480;-84
2022/06/20 00:21:16;;;;;;;5.47;4.55;;;;;;;22.58;63.81;101387.88;5051198;28;20039;-84
2022/06/20 00:23:42;;;;;;;6.32;4.05;;;;;;;22.79;63.94;101424.56;5051241;28;20025;-84
2022/06/20 00:26:08;;;;;;;5.25;4.20;;;;;;;22.51;64.21;101378.03;5051084;28;20032;-84
2022/06/20 00:28:34;;;;;;;5.63;4.28;;;;;;;22.75;64.09;101407.66;5050427;28;20029;-84
2022/06/20 00:31:00;;;;;;;;;;;;;;;22.82;63.84;101416.63;5031417;28;20028;-84
2022/06/20 00:33:26;;;;;;;5.22;4.07;;;;;;;22.76;63.99;101420.09;5051880;28;19916;-84
2022/06/20 00:35:53;;;;;;;6.68;4.22;;;;;;;22.53;64.02;101377.16;5050965;28;20025;-84
2022/06/20 00:38:20;;;;;;;6.20;4.15;;;;;;;22.73;63.91;101419.16;5018023;28;20384;-84
2022/06/20 00:41:05;;;;;;;4.63;4.22;;;;;;;22.71;64.07;101412.91;5033158;28;20040;-84
2022/06/20 00:43:36;;;;;;;4.15;3.85;;;;;;;22.66;64.13;101407.53;5045283;28;20024;-84
2022/06/20 00:46:12;;;;;;;5.88;4.13;;;;;;;22.72;63.82;101398.72;5033226;28;20503;-85
2022/06/20 00:49:07;;;;;;;5.80;4.03;;;;;;;22.72;63.78;101401.41;5034104;28;20732;-84
2022/06/20 00:51:40;;;;;;;4.40;4.00;;;;;;;22.60;63.77;101387.91;5033028;28;20031;-84
2022/06/20 00:54:23;;;;;;;6.32;4.00;;;;;;;22.69;63.72;101391.59;5033058;28;20029;-84
2022/06/20 00:56:56;;;;;;;4.60;4.20;;;;;;;22.68;63.76;101403.13;5049530;28;20067;-84
2022/06/20 00:59:33;;;;;;;5.53;4.28;;;;;;;22.62;63.74;101376.41;5047707;28;20561;-84
2022/06/20 01:02:00;;;;;;;4.93;3.90;;;;;;;22.68;63.59;101384.47;5049940;28;20033;-84
2022/06/20 01:05:15;;;;;;;4.43;4.03;;;;;;;22.68;63.70;101384.47;5032788;28;20033;-83
2022/06/20 01:08:07;;;;;;;4.45;4.03;;;;;;;22.58;63.56;101360.38;5033046;28;20036;-83
2022/06/20 01:10:45;;;;;;;6.32;4.00;;;;;;;22.65;63.75;101380.88;5050170;28;20492;-83
2022/06/20 01:13:48;;;;;;;5.47;4.15;;;;;;;22.68;63.41;101380.91;5035740;28;20093;-83
2022/06/20 01:16:13;;;;;;;4.28;3.88;;;;;;;22.50;63.60;101347.84;5058587;28;20032;-84
2022/06/20 01:18:41;;;;;;;7.32;4.03;;;;;;;22.65;63.38;101383.53;5075458;28;20069;-83
2022/06/20 01:21:14;;;;;;;4.88;3.97;;;;;;;22.62;63.35;101386.16;5050276;28;20129;-83
2022/06/20 01:23:46;;;;;;;4.18;3.78;;;;;;;22.66;63.52;101385.34;5014191;28;20032;-83
2022/06/20 01:26:30;;;;;;;7.00;4.28;;;;;;;22.52;63.48;101377.13;5050618;28;20063;-83
2022/06/20 01:28:59;;;;;;;4.40;4.00;;;;;;;22.56;63.44;101379.88;5039053;28;20090;-83
2022/06/20 01:31:26;;;;;;;5.22;3.78;;;;;;;22.63;63.46;101395.94;5032446;28;20056;-83
2022/06/20 01:33:52;;;;;;;4.35;3.95;;;;;;;22.54;63.51;101375.38;5032607;28;20045;-83
2022/06/20 01:39:04;;;;;;;4.68;3.75;;;;;;;22.59;63.49;101392.34;5024848;28;20036;-82
2022/06/20 01:44:17;;;;;;;5.10;4.10;;;;;;;22.56;63.46;101386.94;5035935;28;20129;-82
2022/06/20 01:46:43;;;;;;;4.78;4.28;;;;;;;22.53;63.37;101381.59;5033406;28;20037;-82
2022/06/20 01:49:21;;;;;;;4.68;4.28;;;;;;;22.53;63.21;101386.91;5030678;28;20032;-83
2022/06/20 01:52:19;;;;;;;4.72;3.97;;;;;;;22.61;63.29;101397.69;5031389;28;20035;-83
2022/06/20 01:54:49;;;;;;;;;;;;;;;22.63;63.25;101402.16;5040137;28;20098;-83
2022/06/20 01:57:15;;;;;;;4.38;3.97;;;;;;;22.49;63.25;101379.75;5032513;28;19920;-83
2022/06/20 02:00:02;;;;;;;5.03;3.60;;;;;;;22.56;63.33;101398.53;5031288;28;20029;-83
2022/06/20 02:02:29;;;;;;;5.90;4.03;;;;;;;22.51;63.28;101386.91;5021408;28;20040;-83
2022/06/20 02:04:56;;;;;;;4.68;3.72;;;;;;;22.54;63.28;101394.94;5032002;28;20033;-82
2022/06/20 02:07:21;;;;;;;4.28;3.88;;;;;;;22.49;63.18;101383.31;5050806;28;20025;-83
2022/06/20 02:09:47;;;;;;;4.88;3.80;;;;;;;22.25;63.32;101335.94;5031873;28;20037;-84
2022/06/20 02:12:14;;;;;;;4.40;4.00;;;;;;;22.48;63.00;101391.25;5031315;28;20435;-83
2022/06/20 02:14:48;;;;;;;4.10;3.80;;;;;;;22.36;63.23;101366.25;5031748;28;20094;-84
2022/06/20 02:17:20;;;;;;;4.35;3.95;;;;;;;22.38;63.16;101371.63;5031143;28;20071;-84
2022/06/20 02:19:49;;;;;;;4.32;3.90;;;;;;;22.42;63.09;101372.56;5032071;28;20488;-84
2022/06/20 02:22:17;;;;;;;6.32;4.03;;;;;;;22.53;63.00;101385.16;5031605;28;20431;-84
2022/06/20 02:24:46;;;;;;;4.50;4.10;;;;;;;;;;5015609;28;20025;-84
2022/06/20 02:27:21;;;;;;;5.28;4.25;;;;;;;22.39;63.18;101361.88;5047756;28;20085;-84
2022/06/20 02:29:47;;;;;;;4.35;3.95;;;;;;;22.47;63.18;101374.41;5031967;28;20029;-83
2022/06/20 02:32:19;;;;;;;4.35;4.05;;;;;;;22.30;63.11;101344.00;5047223;28;20581;-84
2022/06/20 02:34:46;;;;;;;4.65;4.10;;;;;;;22.48;62.81;101372.63;5027365;28;20080;-83
2022/06/20 02:37:14;;;;;;;4.57;4.10;;;;;;;22.48;62.94;101372.63;5034744;28;20082;-83
2022/06/20 02:39:42;;;;;;;4.43;3.80;;;;;;;22.33;62.98;101352.94;5053172;28;20028;-84
2022/06/20 02:42:12;;;;;;;4.97;4.45;;;;;;;22.48;62.92;101383.28;5035310;28;20086;-84
2022/06/20 02:44:42;;;;;;;4.80;4.10;;;;;;;22.43;62.88;101367.25;5033530;28;20427;-83
2022/06/20 02:47:08;;;;;;;7.45;4.00;;;;;;;22.33;62.82;101360.91;5034427;28;20119;-83
2022/06/20 02:49:34;;;;;;;10.60;4.25;;;;;;;22.43;63.04;101372.56;5034006;28;20558;-84
2022/06/20 02:52:00;;;;;;;4.15;3.75;;;;;;;22.44;62.98;101368.16;5034742;28;20112;-84
2022/06/20 02:54:29;;;;;;;4.82;4.05;;;;;;;22.28;62.92;101343.06;5031168;28;20029;-83
2022/06/20 02:57:01;;;;;;;5.45;4.10;;;;;;;22.28;63.09;101341.31;5028592;28;20027;-83
2022/06/20 02:59:40;;;;;;;6.20;4.45;;;;;;;22.44;62.79;101376.16;5033563;28;20148;-83
2022/06/20 03:02:09;;;;;;;4.63;4.22;;;;;;;22.24;62.89;101330.59;5032955;28;20102;-83
2022/06/20 03:04:36;;;;;;;4.32;3.90;;;;;;;;;;5035889;28;20055;-83
2022/06/20 03:07:24;;;;;;;4.60;4.03;;;;;;;22.42;62.82;101352.16;5034786;28;20116;-83
2022/06/20 03:09:54;;;;;;;4.90;4.40;;;;;;;22.20;62.97;101326.94;5053590;28;20055;-83
2022/06/20 03:12:19;;;;;;;5.30;4.30;;;;;;;22.38;62.96;101360.97;5035513;28;20574;-84
2022/06/20 03:14:52;;;;;;;5.53;3.90;;;;;;;22.32;62.90;101348.47;5039963;28;20112;-84
2022/06/20 03:17:20;;;;;;;5.07;4.20;;;;;;;22.11;63.07;101313.53;5037506;28;20079;-83
2022/06/20 03:19:49;;;;;;;6.43;4.30;;;;;;;22.34;63.02;101357.38;5018520;28;20033;-83
2022/06/20 03:22:18;;;;;;;4.85;4.30;;;;;;;22.23;62.97;101340.34;5028338;28;20048;-83
2022/06/20 03:24:44;;;;;;;5.38;4.40;;;;;;;22.26;63.05;101339.50;5051143;28;20131;-82
2022/06/20 03:27:10;;;;;;;;;;;;;;;22.40;62.85;101351.25;5041872;28;20569;-82
2022/06/20 03:29:37;;;;;;;4.55;4.07;;;;;;;22.28;63.04;101335.97;5053423;28;19909;-81
2022/06/20 03:32:04;;;;;;;6.72;4.15;;;;;;;22.16;63.15;101320.72;5053152;28;20431;-81
2022/06/20 03:34:29;;;;;;;6.32;4.40;;;;;;;22.23;63.22;101334.16;5035676;28;20032;-82
2022/06/20 03:36:55;;;;;;;6.50;4.10;;;;;;;22.27;63.25;101342.19;5035492;28;20410;-82
2022/06/20 03:39:21;;;;;;;7.30;4.30;;;;;;;22.24;63.20;101335.91;5035508;28;20090;-82
2022/06/20 03:41:47;;;;;;;;;;;;;;;22.35;63.03;101351.19;5035716;28;20029;-82
2022/06/20 03:44:20;;;;;;;5.07;4.13;;;;;;;22.30;63.27;101350.19;5015531;28;19909;-82
2022/06/20 03:46:49;;;;;;;6.72;4.25;;;;;;;22.20;63.32;101337.59;5030509;28;20032;-81
2022/06/20 03:49:27;;;;;;;6.50;4.50;;;;;;;22.19;63.35;101338.47;5052978;28;20547;-82
2022/06/20 03:52:02;;;;;;;6.88;4.15;;;;;;;22.28;63.26;101354.59;5034955;28;20407;-82
2022/06/20 03:54:34;;;;;;;5.30;4.35;;;;;;;22.27;63.21;101349.28;5035009;28;20475;-82
2022/06/20 03:57:10;;;;;;;5.95;4.30;;;;;;;22.25;63.31;101340.38;5035183;28;20116;-82
2022/06/20 03:59:36;;;;;;;6.47;4.72;;;;;;;22.32;63.32;101348.47;5052659;28;20020;-82
2022/06/20 04:02:07;;;;;;;5.22;4.65;;;;;;;22.30;63.43;101342.22;5034840;28;20124;-81
2022/06/20 04:04:45;;;;;;;6.45;4.35;;;;;;;22.21;63.56;101328.75;5052621;28;20026;-82
2022/06/20 04:07:18;;;;;;;5.72;4.65;;;;;;;22.25;63.57;101335.06;5052488;28;20028;-82
2022/06/20 04:12:56;;;;;;;6.45;4.65;;;;;;;22.26;63.82;101350.13;5037651;28;20170;-83
2022/06/20 04:15:30;;;;;;;7.75;4.93;;;;;;;22.27;63.64;101344.84;5034640;28;20067;-83
2022/06/20 04:18:31;;;;;;;6.38;4.60;;;;;;;22.29;63.59;101348.44;5034549;28;20053;-82
2022/06/20 04:21:29;;;;;;;7.47;5.20;;;;;;;22.27;63.75;101350.16;5038308;28;20524;-82
2022/06/20 04:24:03;;;;;;;5.78;5.05;;;;;;;22.28;63.77;101353.72;5052340;28;20024;-83
2022/06/20 04:26:57;;;;;;;6.75;4.80;;;;;;;22.29;63.72;101353.75;5034303;28;20415;-82
2022/06/20 04:29:50;;;;;;;6.22;4.70;;;;;;;22.23;63.81;101337.69;5031353;28;20411;-83
2022/06/20 04:32:34;;;;;;;5.43;4.85;;;;;;;22.29;63.89;101345.78;5051874;28;20132;-82
2022/06/20 04:35:24;;;;;;;5.30;4.80;;;;;;;22.15;64.05;101323.34;5035899;28;20598;-82
2022/06/20 04:37:55;;;;;;;5.40;4.90;;;;;;;22.26;64.04;101348.38;5040080;28;20028;-81
2022/06/20 04:40:27;;;;;;;5.25;4.75;;;;;;;22.22;64.34;101350.94;5053660;28;20047;-81
2022/06/20 04:43:22;;;;;;;6.95;5.20;;;;;;;22.25;64.38;101351.03;5050454;28;20029;-83
2022/06/20 04:46:04;;;;;;;5.43;4.93;;;;;;;22.21;64.58;101347.38;5032795;28;20075;-83
2022/06/20 04:48:30;;;;;;;6.38;5.38;;;;;;;22.03;64.50;101312.50;5034612;28;20068;-80
2022/06/20 04:51:06;;;;;;;6.35;5.35;;;;;;;22.19;64.63;101348.22;5052068;28;20045;-79
2022/06/20 04:53:38;;;;;;;6.55;5.32;;;;;;;22.20;64.70;101344.69;5034093;28;20020;-79
2022/06/20 04:56:06;;;;;;;9.55;5.60;;;;;;;22.16;64.88;101344.66;5052033;28;20021;-80
2022/06/20 04:58:41;;;;;;;7.35;5.63;;;;;;;22.22;64.88;101346.50;5051300;28;20043;-80
2022/06/20 05:01:07;;;;;;;6.35;4.90;;;;;;;22.19;64.95;101341.13;5051864;28;20079;-80
2022/06/20 05:03:40;;;;;;;5.78;5.20;;;;;;;22.03;65.29;101318.72;5033941;28;20033;-81
2022/06/20 05:06:08;;;;;;;5.95;5.35;;;;;;;22.20;65.43;101347.34;5033121;28;20020;-81
2022/06/20 05:08:38;;;;;;;6.05;5.50;;;;;;;22.10;65.49;101351.66;5051972;28;20052;-81
2022/06/20 05:11:11;;;;;;;7.30;5.70;;;;;;;22.11;65.61;101349.00;5051894;28;20025;-81
2022/06/20 05:14:05;;;;;;;5.90;5.30;;;;;;;22.20;65.47;101356.22;5034211;28;20551;-80
2022/06/20 05:16:34;;;;;;;8.35;5.85;;;;;;;22.21;65.48;101357.13;5048167;28;20041;-80
2022/06/20 05:19:06;;;;;;;5.78;5.25;;;;;;;22.15;65.80;101353.50;5033848;28;20013;-81
2022/06/20 05:21:36;;;;;;;7.85;5.60;;;;;;;22.10;65.71;101339.22;5016194;28;20049;-80
2022/06/20 05:24:10;;;;;;;6.05;5.30;;;;;;;22.15;65.87;101344.63;5033516;28;20446;-80
2022/06/20 05:26:40;;;;;;;6.68;5.75;;;;;;;22.11;66.05;101346.31;5051315;28;20021;-81
2022/06/20 05:29:09;;;;;;;6.45;5.20;;;;;;;22.17;65.89;101343.78;5029229;28;20031;-79
2022/06/20 05:31:39;;;;;;;5.85;5.35;;;;;;;22.06;65.93;101331.19;5033571;28;20106;-80
2022/06/20 05:34:16;;;;;;;6.13;5.53;;;;;;;22.16;66.16;101352.63;5033626;28;20033;-80
2022/06/20 05:37:00;;;;;;;6.57;5.97;;;;;;;22.15;66.10;101350.81;5051430;28;20404;-80
2022/06/20 05:39:29;;;;;;;6.53;5.90;;;;;;;22.15;66.24;101350.81;5051126;28;20025;-80
2022/06/20 05:41:55;;;;;;;7.05;6.35;;;;;;;22.14;66.42;101354.38;5033104;28;20444;-80
2022/06/20 05:44:22;;;;;;;6.68;5.82;;;;;;;22.10;66.52;101347.22;5024362;28;20170;-80
2022/06/20 05:47:04;;;;;;;8.02;6.82;;;;;;;21.96;66.62;101325.69;5042538;28;20108;-80
2022/06/20 05:49:33;;;;;;;8.80;7.78;;;;;;;22.08;66.83;101334.78;5044687;28;20029;-80
2022/06/20 05:52:01;;;;;;;9.23;8.23;;;;;;;21.99;66.91;101330.16;5032281;28;20028;-80
2022/06/20 05:54:31;;;;;;;10.00;7.38;;;;;;;22.12;66.76;101347.25;5050215;28;20028;-81
2022/06/20 05:57:16;;;;;;;10.05;8.52;;;;;;;22.02;66.95;101326.69;5050247;28;20036;-80
2022/06/20 05:59:44;;;;;;;10.48;8.35;;;;;;;22.12;67.31;101347.25;5032604;28;20021;-80
2022/06/20 06:02:21;;;;;;;13.65;9.40;;;;;;;22.24;67.54;101352.75;5051157;28;20025;-80
2022/06/20 06:04:56;;;;;;;12.13;7.15;;;;;;;22.23;68.64;101345.66;5049299;28;20056;-78
2022/06/20 06:07:28;;;;;;;8.95;7.53;;;;;;;22.03;67.89;101299.22;5045579;28;20058;-79
2022/06/20 06:10:02;;;;;;;10.40;8.05;;;;;;;22.17;67.66;101346.44;5032295;28;20024;-79
2022/06/20 06:12:28;;;;;;;11.15;9.35;;;;;;;22.17;68.06;101330.47;5035263;28;20622;-79
2022/06/20 06:15:03;;;;;;;13.25;11.40;;;;;;;22.24;67.83;101336.81;5055480;28;20113;-80
2022/06/20 06:17:56;;;;;;;12.50;9.77;;;;;;;22.46;67.99;101326.50;5055909;28;20092;-79
2022/06/20 06:20:24;;;;;;;12.98;10.00;;;;;;;22.30;67.80;101325.38;5037297;28;20028;-79
2022/06/20 06:22:53;;;;;;;11.27;10.00;;;;;;;22.25;67.77;101325.31;5055169;28;20368;-80
2022/06/20 06:25:27;;;;;;;14.15;9.95;;;;;;;22.26;67.99;101324.41;5037453;28;20021;-79
2022/06/20 06:27:56;;;;;;;11.32;10.13;;;;;;;22.28;68.09;101328.00;5037569;28;20098;-81
2022/06/20 06:30:56;;;;;;;13.13;9.93;;;;;;;22.29;68.13;101331.56;5020172;28;20024;-81
2022/06/20 06:33:25;;;;;;;12.20;9.82;;;;;;;22.11;68.14;101301.09;5034217;28;20127;-79
2022/06/20 06:36:00;;;;;;;10.23;9.05;;;;;;;22.23;68.31;101311.09;5054645;28;20487;-80
2022/06/20 06:38:34;;;;;;;12.18;10.07;;;;;;;22.30;68.03;101312.06;5054679;28;20031;-81
2022/06/20 06:41:01;;;;;;;15.65;9.15;;;;;;;22.19;68.13;101316.31;5054349;28;20028;-80
2022/06/20 06:43:29;;;;;;;11.43;7.15;;;;;;;22.47;67.25;101293.69;5037496;28;20075;-79
2022/06/20 06:45:59;;;;;;;9.23;6.30;;;;;;;22.54;67.55;101299.13;5019972;28;20456;-79
2022/06/20 06:48:37;;;;;;;1236.78;105.40;;;;;;;22.35;68.14;101302.38;5037377;28;20478;-78
2022/06/20 06:51:25;;;;;;;866.50;74.97;;;;;;;22.59;67.52;101307.16;5036977;28;20614;-78
2022/06/20 06:53:59;;;;;;;488.25;42.20;;;;;;;22.47;67.87;101297.22;5036670;28;20063;-78
2022/06/20 06:56:34;;;;;;;274.25;25.40;;;;;;;;;;5033607;28;20043;-79
2022/06/20 06:59:05;;;;;;;294.73;24.42;;;;;;;22.44;68.39;101301.63;5048018;28;20526;-78
2022/06/20 07:01:51;;;;;;;279.45;24.27;;;;;;;22.50;68.88;101299.03;5035822;28;20052;-78
2022/06/20 07:04:38;;;;;;;186.18;19.70;;;;;;;22.88;67.83;101301.28;5053997;28;20055;-78
2022/06/20 07:07:36;;;;;;;86.93;12.80;;;;;;;22.81;68.37;101292.34;5036054;28;20078;-79
2022/06/20 07:10:02;;;;;;;;;;;;;;;22.88;68.31;101293.28;4999855;28;20038;-79
2022/06/20 07:12:44;;;;;;;52.85;9.77;;;;;;;22.87;67.53;101284.41;5036046;28;20023;-79
2022/06/20 07:15:18;;;;;;;812.78;54.70;;;;;;;22.61;68.27;101283.22;5035850;28;20028;-80
2022/06/20 07:17:44;;;;;;;792.60;52.25;;;;;;;22.68;69.01;101280.63;5053827;28;20086;-78
2022/06/20 07:20:10;;;;;;;682.42;47.50;;;;;;;22.64;68.89;101285.91;5053701;28;20025;-80
2022/06/20 07:22:40;;;;;;;715.33;48.38;;;;;;;22.68;69.27;101283.31;5035457;28;20033;-78
2022/06/20 07:25:07;;;;;;;699.20;46.30;;;;;;;22.76;69.74;101276.31;5035854;28;20511;-78
2022/06/20 07:28:06;;;;;;;617.03;42.40;;;;;;;22.66;69.74;101279.72;5035726;28;20021;-78
2022/06/20 07:30:37;;;;;;;808.10;52.63;;;;;;;22.74;69.71;101283.38;5052024;28;20041;-78
2022/06/20 07:33:13;;;;;;;381.55;28.00;;;;;;;22.66;69.26;101269.06;5035356;28;20049;-78
2022/06/20 07:35:45;;;;;;;298.42;24.48;;;;;;;22.73;69.27;101262.03;5035685;28;20105;-79
2022/06/20 07:38:17;;;;;;;253.45;20.30;;;;;;;22.95;68.46;101277.41;5035474;28;20116;-77
2022/06/20 07:40:49;;;;;;;109.00;12.45;;;;;;;22.77;69.45;101277.19;5053315;28;20063;-78
2022/06/20 07:43:30;;;;;;;85.85;10.95;;;;;;;22.76;69.27;101272.75;5053262;28;20157;-78
2022/06/20 07:46:01;;;;;;;60.17;8.70;;;;;;;22.72;68.81;101277.13;5053139;28;20029;-78
2022/06/20 07:48:33;;;;;;;64.38;8.68;;;;;;;22.93;68.91;101275.63;5035580;28;20057;-78
2022/06/20 07:51:00;;;;;;;53.03;8.13;;;;;;;22.91;68.94;101272.03;5035405;28;20020;-78
2022/06/20 07:53:58;;;;;;;47.50;8.10;;;;;;;22.93;68.55;101270.28;5053278;28;20056;-79
2022/06/20 07:56:54;;;;;;;63.78;8.77;;;;;;;23.08;68.27;101269.59;5023768;28;20534;-78
2022/06/20 07:59:31;;;;;;;79.70;9.15;;;;;;;23.19;67.07;101267.94;5033669;28;20120;-79
2022/06/20 08:02:15;;;;;;;;;;;;;;;23.08;66.98;101278.47;5044052;28;20033;-78
2022/06/20 08:04:42;;;;;;;308.17;22.83;;;;;;;22.96;67.29;101276.56;5061420;28;19913;-78
2022/06/20 08:07:21;;;;;;;86.45;9.40;;;;;;;22.92;66.97;101276.47;5037567;28;20025;-79
2022/06/20 08:10:12;;;;;;;95.28;10.32;;;;;;;23.21;66.60;101276.81;5053158;28;20024;-79
2022/06/20 08:12:41;;;;;;;50.20;8.07;;;;;;;23.09;67.17;101264.28;5053000;28;20447;-78
2022/06/20 08:15:20;;;;;;;41.95;6.85;;;;;;;23.12;66.71;101266.97;5053211;28;20119;-78
2022/06/20 08:17:46;;;;;;;39.53;6.75;;;;;;;23.00;67.50;101264.13;5005057;28;20138;-80
2022/06/20 08:20:12;;;;;;;21.60;6.18;;;;;;;22.92;67.94;101260.50;5035491;28;20108;-80
2022/06/20 08:22:48;;;;;;;;;;;;;;;23.12;67.66;101258.09;5035312;28;20029;-79
2022/06/20 08:25:25;;;;;;;15.32;6.10;;;;;;;23.11;67.87;101254.53;5052790;28;20386;-79
2022/06/20 08:27:56;;;;;;;13.15;6.35;;;;;;;22.96;68.14;101230.34;5052652;28;20450;-78
2022/06/20 08:30:54;;;;;;;12.00;6.35;;;;;;;23.17;68.56;101261.69;5034780;28;20027;-79
2022/06/20 08:33:43;;;;;;;885.53;59.17;;;;;;;23.16;68.82;101267.91;5033007;28;20060;-81
2022/06/20 08:36:27;;;;;;;1187.28;91.35;;;;;;;22.81;69.60;101224.88;5034740;28;20480;-80
2022/06/20 08:38:59;;;;;;;612.55;41.83;;;;;;;23.12;69.71;101260.75;5038688;28;20446;-79
2022/06/20 08:41:52;;;;;;;413.50;29.38;;;;;;;23.31;68.98;101253.84;5052297;28;20036;-79
2022/06/20 08:44:32;;;;;;;498.52;35.25;;;;;;;23.46;68.65;101253.09;5041830;28;20049;-80
2022/06/20 08:47:13;;;;;;;262.55;20.88;;;;;;;23.37;68.69;101253.91;5052338;28;20095;-80
2022/06/20 08:50:08;;;;;;;97.10;13.50;;;;;;;23.34;68.47;101251.19;5034433;28;20029;-82
2022/06/20 08:52:52;;;;;;;87.03;11.88;;;;;;;23.32;68.71;101240.50;5049206;28;20419;-82
2022/06/20 08:55:32;;;;;;;154.57;12.88;;;;;;;23.13;69.48;101241.22;5052076;28;20495;-81
2022/06/20 08:58:07;;;;;;;44.78;8.50;;;;;;;23.22;68.82;101238.66;5034368;28;20403;-82
2022/06/20 09:01:02;;;;;;;30.90;7.63;;;;;;;23.45;67.67;101244.22;5033901;28;20029;-85
2022/06/20 09:03:50;;;;;;;22.48;7.30;;;;;;;23.07;67.38;101170.16;4969204;28;20518;-83
2022/06/20 09:06:28;;;;;;;70.20;7.35;;;;;;;23.22;67.27;101236.00;5052477;28;20373;-81
2022/06/20 09:08:57;;;;;;;76.18;8.15;;;;;;;23.10;67.88;101236.75;5034172;28;20033;-83
2022/06/20 09:11:39;;;;;;;66.57;8.13;;;;;;;23.25;68.16;101237.78;5052670;28;20023;-83
2022/06/20 09:14:27;;;;;;;31.58;7.30;;;;;;;23.08;67.67;101209.22;5052895;28;20029;-81
2022/06/20 09:17:18;;;;;;;17.08;6.15;;;;;;;22.77;67.98;101184.00;5053259;28;20509;-82
2022/06/20 09:20:05;;;;;;;11.48;6.38;;;;;;;23.15;68.08;101234.13;5053231;28;20033;-82
2022/06/20 09:23:16;;;;;;;14.82;6.43;;;;;;;23.24;68.06;101230.66;5054074;28;20513;-82
2022/06/20 09:25:51;;;;;;;9.02;5.72;;;;;;;23.12;68.32;101228.78;5036777;28;20488;-82
2022/06/20 09:28:44;;;;;;;8.65;6.20;;;;;;;23.31;67.93;101221.88;5034261;28;20472;-83
2022/06/20 09:31:29;;;;;;;13.35;5.95;;;;;;;23.19;68.61;101216.41;5052600;28;20033;-84
2022/06/20 09:34:05;;;;;;;11.45;6.05;;;;;;;23.54;67.76;101217.59;5035356;28;20431;-80
2022/06/20 09:36:44;;;;;;;10.13;6.07;;;;;;;23.52;68.09;101218.47;5055881;28;20033;-84
2022/06/20 09:39:09;;;;;;;17.88;6.70;;;;;;;23.34;69.02;101220.09;5035365;28;20033;-81
2022/06/20 09:41:49;;;;;;;8.02;5.68;;;;;;;23.32;68.94;101208.53;5052562;28;20052;-83
2022/06/20 09:44:36;;;;;;;11.52;6.57;;;;;;;23.27;68.94;101182.75;5052833;28;20017;-81
2022/06/20 09:47:18;;;;;;;8.02;6.35;;;;;;;23.35;68.73;101211.25;5038057;28;20033;-81
2022/06/20 09:50:12;;;;;;;9.20;6.35;;;;;;;23.27;68.82;101212.06;5039011;28;20033;-83
2022/06/20 09:53:11;;;;;;;16.42;6.82;;;;;;;23.30;69.87;101212.06;5034248;28;20037;-82
2022/06/20 09:55:59;;;;;;;21.75;6.38;;;;;;;23.32;69.00;101219.19;5038703;28;20116;-83
2022/06/20 09:58:33;;;;;;;13.98;6.10;;;;;;;23.44;68.67;101218.41;5040977;28;20024;-87
2022/06/20 10:01:08;;;;;;;99.00;11.43;;;;;;;23.71;68.32;101214.19;5041741;28;20028;-86
2022/06/20 10:04:15;;;;;;;23.83;7.18;;;;;;;23.61;68.22;101205.22;5058301;28;20021;-87
2022/06/20 10:07:12;;;;;;;19.98;6.95;;;;;;;23.64;68.68;101201.66;4993729;28;20142;-85
2022/06/20 10:09:56;;;;;;;21.10;6.97;;;;;;;23.76;69.00;101204.47;5042155;28;20021;-85
2022/06/20 10:12:52;;;;;;;13.18;6.60;;;;;;;23.63;68.91;101206.13;5057188;28;20104;-86
2022/06/20 10:19:31;;;;;;;;;;;;;;;;;;;;;
2022/06/20 10:23:10;;;;;;;6.78;5.13;;;;;;;22.90;68.82;101119.34;5038903;28;20036;-83
2022/06/20 10:26:14;;;;;;;10.23;5.38;;;;;;;23.53;68.22;101202.47;4992696;28;20026;-86
2022/06/20 10:29:03;;;;;;;6.63;5.40;;;;;;;23.26;69.49;101181.84;4976762;28;20516;-83
2022/06/20 10:31:44;;;;;;;9.55;5.65;;;;;;;23.53;68.18;101186.47;5036512;28;20060;-84
2022/06/20 10:34:38;;;;;;;7.38;5.43;;;;;;;23.32;68.79;101179.22;5016980;28;20523;-85
2022/06/20 10:37:06;;;;;;;8.32;5.70;;;;;;;23.44;69.35;101197.09;4996978;28;20018;-85
2022/06/20 10:40:05;;;;;;;8.90;5.55;;;;;;;23.45;69.26;101188.22;5026044;28;20040;-85
2022/06/20 10:42:40;;;;;;;5.95;5.38;;;;;;;23.29;69.39;101181.88;5003149;28;20029;-85
2022/06/20 10:45:17;;;;;;;9.43;6.20;;;;;;;23.55;69.18;101192.72;5034214;28;20021;-85
2022/06/20 10:48:04;;;;;;;17.08;6.15;;;;;;;23.43;69.05;101191.75;5016716;28;20025;-81
2022/06/20 10:50:47;;;;;;;10.10;6.40;;;;;;;23.67;68.12;101181.25;5034534;28;20025;-83
2022/06/20 10:53:32;;;;;;;9.80;6.10;;;;;;;23.49;68.87;101182.00;5005344;28;20029;-82
2022/06/20 10:56:25;;;;;;;6.68;5.70;;;;;;;23.25;69.20;101153.41;4999553;28;20025;-83
2022/06/20 10:59:18;;;;;;;9.32;6.13;;;;;;;23.33;69.34;101173.03;5034110;28;20029;-82
2022/06/20 11:01:53;;;;;;;9.57;6.05;;;;;;;23.30;69.30;101162.31;5016603;28;20029;-82
2022/06/20 11:04:54;;;;;;;8.23;5.88;;;;;;;23.47;69.10;101194.44;5014788;28;20045;-81
2022/06/20 11:07:31;;;;;;;8.27;5.68;;;;;;;23.43;68.93;101182.00;5038981;28;20047;-81
2022/06/20 11:10:09;;;;;;;9.15;5.90;;;;;;;23.45;69.22;101189.97;5029212;28;20052;-81
2022/06/20 11:12:50;;;;;;;9.45;5.40;;;;;;;23.38;68.98;101168.59;5030017;28;20030;-82
2022/06/20 11:15:33;;;;;;;7.65;5.40;;;;;;;23.45;69.04;101180.22;5002989;28;21040;-82
2022/06/20 11:18:24;;;;;;;7.55;5.30;;;;;;;23.47;68.96;101182.88;5036131;28;20018;-83
2022/06/20 11:20:58;;;;;;;7.68;5.22;;;;;;;23.27;69.09;101145.44;5036164;28;20100;-83
2022/06/20 11:24:06;;;;;;;8.15;5.25;;;;;;;23.47;69.28;101178.44;5019937;28;20039;-82
2022/06/20 11:27:10;;;;;;;6.53;5.10;;;;;;;23.48;68.92;101174.03;5043635;28;20040;-83
2022/06/20 11:29:54;;;;;;;5.50;5.00;;;;;;;23.47;69.12;101165.09;4976754;28;20049;-84
2022/06/20 11:32:50;;;;;;;6.28;5.25;;;;;;;23.45;69.13;101161.56;5036445;28;20041;-83
2022/06/20 11:35:52;;;;;;;8.32;5.60;;;;;;;23.43;69.11;101168.66;5051822;28;20060;-83
2022/06/20 11:38:42;;;;;;;5.70;5.15;;;;;;;23.19;69.45;101120.50;5042758;28;20021;-82
2022/06/20 11:41:21;;;;;;;7.65;4.82;;;;;;;23.44;69.50;101162.44;5024672;28;20029;-83
2022/06/20 11:44:06;;;;;;;5.43;4.88;;;;;;;23.46;69.24;101158.00;5032485;28;20496;-83
2022/06/20 11:47:14;;;;;;;5.72;5.13;;;;;;;23.44;69.54;101148.22;5033517;28;20120;-83
2022/06/20 11:49:48;;;;;;;5.65;4.90;;;;;;;23.48;69.32;101150.03;5015609;28;20045;-83
2022/06/20 11:52:38;;;;;;;6.40;4.78;;;;;;;23.50;69.17;101138.50;5040887;28;20119;-80
2022/06/20 11:55:28;;;;;;;6.55;4.55;;;;;;;23.50;69.02;101148.28;5038986;28;20037;-83
2022/06/20 11:58:07;;;;;;;6.03;4.65;;;;;;;23.48;69.10;101144.69;5033426;28;20024;-82
2022/06/20 12:00:47;;;;;;;5.15;4.65;;;;;;;23.47;69.22;101146.44;5035070;28;20029;-82
2022/06/20 12:03:12;;;;;;;5.13;4.72;;;;;;;23.48;69.06;101145.59;5043830;28;20032;-82
2022/06/20 12:05:38;;;;;;;;;;;;;;;23.54;68.87;101148.28;5052677;28;20021;-83
2022/06/20 12:08:33;;;;;;;5.03;4.63;;;;;;;23.25;68.76;101086.78;5034575;28;19912;-82
2022/06/20 12:11:11;;;;;;;4.93;4.43;;;;;;;23.50;68.94;101137.59;5029847;28;20512;-82
2022/06/20 12:13:58;;;;;;;6.38;4.82;;;;;;;23.52;69.02;101139.41;5040263;28;20029;-81
2022/06/20 12:16:24;;;;;;;5.25;4.75;;;;;;;23.46;69.42;101139.34;5042741;28;20551;-81
2022/06/20 12:25:20;;;;;;;5.40;4.90;;;;;;;23.52;69.22;101127.84;4971422;28;20572;-82
2022/06/20 12:27:46;;;;;;;4.55;4.15;;;;;;;23.48;69.30;101124.25;5022484;28;20120;-81
2022/06/20 12:30:14;;;;;;;5.80;4.38;;;;;;;23.48;69.20;101121.59;5051891;28;20028;-81
2022/06/20 12:32:43;;;;;;;4.82;4.38;;;;;;;23.36;69.19;101105.50;5034118;28;20478;-82